Time;durP1;ratioP1;P1;durP2;ratioP2;P2;SDS_P1;SDS_P2;PMS_P1;PMS_P2;Temp;Humidity;BMP_temperature;BMP_pressure;BME280_temperature;BME280_humidity;BME280_pressure;Samples;Min_cycle;Max_cycle;Signal;HPM_P1;HPM_P2
2022/06/12 00:01:25;;;;;;;12.40;4.00;;;;;;;;;;5079654;28;20033;-66
2022/06/12 00:03:54;;;;;;;12.73;3.97;;;;;;;;;;5072071;28;20036;-65
2022/06/12 00:06:20;;;;;;;9.30;3.42;;;;;;;;;;5072364;28;20125;-65
2022/06/12 00:08:47;;;;;;;7.50;3.13;;;;;;;;;;5072619;28;20127;-65
2022/06/12 00:11:15;;;;;;;9.30;3.60;;;;;;;;;;5081556;28;20505;-65
2022/06/12 00:13:42;;;;;;;7.22;2.75;;;;;;;;;;5069497;28;20502;-66
2022/06/12 00:16:10;;;;;;;9.25;3.30;;;;;;;;;;5072675;28;20403;-65
2022/06/12 00:18:36;;;;;;;7.35;3.42;;;;;;;;;;5071454;28;20048;-65
2022/06/12 00:21:11;;;;;;;8.50;3.30;;;;;;;;;;5068751;28;20072;-65
2022/06/12 00:23:38;;;;;;;8.50;3.50;;;;;;;;;;5065600;28;20074;-65
2022/06/12 00:26:05;;;;;;;8.48;3.50;;;;;;;;;;5071720;28;20102;-65
2022/06/12 00:28:31;;;;;;;7.32;3.65;;;;;;;;;;5071274;28;20170;-65
2022/06/12 00:30:57;;;;;;;10.02;4.47;;;;;;;;;;5071461;28;20047;-65
2022/06/12 00:33:23;;;;;;;10.43;3.95;;;;;;;;;;5071263;28;20051;-65
2022/06/12 00:35:49;;;;;;;10.73;4.32;;;;;;;;;;5071558;28;20123;-66
2022/06/12 00:38:15;;;;;;;12.57;4.45;;;;;;;;;;5080670;28;20186;-65
2022/06/12 00:40:41;;;;;;;9.55;4.15;;;;;;;;;;5074124;28;20447;-66
2022/06/12 00:43:07;;;;;;;9.40;4.05;;;;;;;;;;5078459;28;20432;-65
2022/06/12 00:45:34;;;;;;;11.63;4.18;;;;;;;;;;5063988;28;20141;-66
2022/06/12 00:48:05;;;;;;;12.10;5.00;;;;;;;;;;5064157;28;20047;-63
2022/06/12 00:50:32;;;;;;;9.60;4.20;;;;;;;;;;5070713;28;20051;-65
2022/06/12 00:52:58;;;;;;;10.38;4.25;;;;;;;;;;5065481;28;20408;-65
2022/06/12 00:55:46;;;;;;;14.13;4.05;;;;;;;;;;5068875;28;20447;-65
2022/06/12 00:58:13;;;;;;;10.95;3.65;;;;;;;;;;5065348;28;20048;-65
2022/06/12 01:00:40;;;;;;;9.20;3.63;;;;;;;;;;5074837;28;20032;-65
2022/06/12 01:03:06;;;;;;;9.95;3.80;;;;;;;;;;5070602;28;20406;-66
2022/06/12 01:08:20;;;;;;;13.80;4.57;;;;;;;;;;5074767;28;20040;-65
2022/06/12 01:10:47;;;;;;;9.80;3.90;;;;;;;;;;5061017;28;20041;-66
2022/06/12 01:13:17;;;;;;;7.32;3.47;;;;;;;;;;5061598;28;20374;-65
2022/06/12 01:15:45;;;;;;;8.63;3.58;;;;;;;;;;5069190;28;20721;-65
2022/06/12 01:18:12;;;;;;;9.43;3.40;;;;;;;;;;5065505;28;20040;-65
2022/06/12 01:20:42;;;;;;;10.02;3.90;;;;;;;;;;5071160;28;20048;-65
2022/06/12 01:23:23;;;;;;;10.10;3.67;;;;;;;;;;5065012;28;20064;-65
2022/06/12 01:26:05;;;;;;;9.13;4.10;;;;;;;;;;5088135;28;20451;-65
2022/06/12 01:28:37;;;;;;;8.45;4.20;;;;;;;;;;5065056;28;20037;-66
2022/06/12 01:31:06;;;;;;;8.95;4.03;;;;;;;;;;5065592;28;20123;-66
2022/06/12 01:33:52;;;;;;;13.52;4.43;;;;;;;;;;5065907;28;20048;-65
2022/06/12 01:36:23;;;;;;;13.48;3.72;;;;;;;;;;5064064;28;20402;-65
2022/06/12 01:38:59;;;;;;;11.27;3.50;;;;;;;;;;5068486;28;20393;-65
2022/06/12 01:41:43;;;;;;;8.00;3.85;;;;;;;;;;5076419;28;20124;-65
2022/06/12 01:44:20;;;;;;;10.95;4.03;;;;;;;;;;5080935;28;20040;-65
2022/06/12 01:46:49;;;;;;;8.73;4.00;;;;;;;;;;5066824;28;20041;-66
2022/06/12 01:49:27;;;;;;;10.68;3.90;;;;;;;;;;5070991;28;20115;-65
2022/06/12 01:51:53;;;;;;;10.98;4.10;;;;;;;;;;5064081;28;20490;-65
2022/06/12 01:54:25;;;;;;;7.93;4.13;;;;;;;;;;5069824;28;20041;-65
2022/06/12 01:56:54;;;;;;;9.73;4.18;;;;;;;;;;5069392;28;20039;-65
2022/06/12 01:59:39;;;;;;;10.75;4.05;;;;;;;;;;5067504;28;20037;-65
2022/06/12 02:02:11;;;;;;;13.45;4.50;;;;;;;;;;5066336;28;20044;-65
2022/06/12 02:04:52;;;;;;;8.18;3.90;;;;;;;;;;5062258;28;20076;-65
2022/06/12 02:07:18;;;;;;;7.78;4.25;;;;;;;;;;5060111;28;20122;-65
2022/06/12 02:09:48;;;;;;;9.13;4.25;;;;;;;;;;5067033;28;20075;-65
2022/06/12 02:15:07;;;;;;;11.52;4.68;;;;;;;;;;5074026;28;20044;-65
2022/06/12 02:17:39;;;;;;;12.10;5.03;;;;;;;;;;5071701;28;20387;-65
2022/06/12 02:20:07;;;;;;;11.30;5.03;;;;;;;;;;5072783;28;20040;-65
2022/06/12 02:22:34;;;;;;;10.80;5.03;;;;;;;;;;5071967;28;20040;-65
2022/06/12 02:25:21;;;;;;;9.18;4.38;;;;;;;;;;5116402;22;20147;-63
2022/06/12 02:27:50;;;;;;;8.90;4.38;;;;;;;;;;5109947;28;20043;-63
2022/06/12 02:30:19;;;;;;;9.82;4.72;;;;;;;;;;5113060;28;20035;-63
2022/06/12 02:32:49;;;;;;;10.10;4.68;;;;;;;;;;5113460;28;20131;-63
2022/06/12 02:35:17;;;;;;;10.27;4.10;;;;;;;;;;5113092;28;20042;-63
2022/06/12 02:37:46;;;;;;;7.57;4.22;;;;;;;;;;5092648;28;20032;-63
2022/06/12 02:40:22;;;;;;;12.90;4.20;;;;;;;;;;5091836;28;20036;-63
2022/06/12 02:42:48;;;;;;;9.32;4.20;;;;;;;;;;5098522;28;20120;-63
2022/06/12 02:45:26;;;;;;;9.30;3.63;;;;;;;;;;5100789;28;20039;-63
2022/06/12 02:47:52;;;;;;;8.88;3.00;;;;;;;;;;5086206;28;20512;-63
2022/06/12 02:50:22;;;;;;;8.25;3.35;;;;;;;;;;5092477;28;20079;-63
2022/06/12 02:52:57;;;;;;;10.63;3.67;;;;;;;;;;5090550;28;20044;-63
2022/06/12 02:55:27;;;;;;;5.78;3.45;;;;;;;;;;5093906;28;20044;-63
2022/06/12 02:57:56;;;;;;;7.85;3.50;;;;;;;;;;5093199;28;20039;-63
2022/06/12 03:00:29;;;;;;;6.10;2.97;;;;;;;;;;5093801;28;20040;-63
2022/06/12 03:03:08;;;;;;;7.88;3.80;;;;;;;;;;5092616;28;20050;-63
2022/06/12 03:05:36;;;;;;;8.43;3.40;;;;;;;;;;5073578;28;20044;-63
2022/06/12 03:08:04;;;;;;;8.73;3.58;;;;;;;;;;5091656;28;20040;-63
2022/06/12 03:10:32;;;;;;;10.30;3.10;;;;;;;;;;5070558;28;20052;-63
2022/06/12 03:13:00;;;;;;;9.05;3.67;;;;;;;;;;5094231;28;20447;-63
2022/06/12 03:15:35;;;;;;;10.77;3.83;;;;;;;;;;5093145;28;20398;-63
2022/06/12 03:18:03;;;;;;;8.20;3.78;;;;;;;;;;5085351;28;20043;-63
2022/06/12 03:20:33;;;;;;;8.38;3.60;;;;;;;;;;5088716;28;20067;-63
2022/06/12 03:23:24;;;;;;;8.90;3.42;;;;;;;;;;5089635;28;20405;-63
2022/06/12 03:25:52;;;;;;;7.95;3.65;;;;;;;;;;5092109;28;20048;-64
2022/06/12 03:28:44;;;;;;;7.97;3.10;;;;;;;;;;5091786;28;20039;-63
2022/06/12 03:31:21;;;;;;;5.82;3.80;;;;;;;;;;5074324;28;20405;-63
2022/06/12 03:34:01;;;;;;;8.85;3.45;;;;;;;;;;5093931;28;20040;-63
2022/06/12 03:36:32;;;;;;;9.65;3.67;;;;;;;;;;5090206;28;20024;-64
2022/06/12 03:39:06;;;;;;;7.57;3.50;;;;;;;;;;5088633;28;20032;-63
2022/06/12 03:41:35;;;;;;;8.02;3.60;;;;;;;;;;5092562;28;20515;-63
2022/06/12 03:44:12;;;;;;;10.57;3.55;;;;;;;;;;5086174;28;20043;-63
2022/06/12 03:46:44;;;;;;;7.00;3.58;;;;;;;;;;5086590;28;20127;-63
2022/06/12 03:49:28;;;;;;;10.40;3.63;;;;;;;;;;5083662;28;20048;-64
2022/06/12 03:52:00;;;;;;;9.43;3.08;;;;;;;;;;5085670;28;20040;-63
2022/06/12 03:54:26;;;;;;;10.95;3.65;;;;;;;;;;5090033;28;20455;-64
2022/06/12 03:59:48;;;;;;;7.18;3.03;;;;;;;;;;5080974;28;20032;-63
2022/06/12 04:02:16;;;;;;;7.00;2.90;;;;;;;;;;5097794;28;20032;-63
2022/06/12 04:04:44;;;;;;;9.27;3.05;;;;;;;;;;5090982;28;20044;-63
2022/06/12 04:07:12;;;;;;;10.75;2.72;;;;;;;;;;5088570;28;20070;-63
2022/06/12 04:09:40;;;;;;;9.38;3.05;;;;;;;;;;5092785;28;20177;-63
2022/06/12 04:12:10;;;;;;;8.32;3.30;;;;;;;;;;5090894;28;20509;-62
2022/06/12 04:14:39;;;;;;;6.05;2.85;;;;;;;;;;5087881;28;20110;-63
2022/06/12 04:17:06;;;;;;;12.13;3.42;;;;;;;;;;5091484;28;20036;-63
2022/06/12 04:19:58;;;;;;;8.55;3.20;;;;;;;;;;5100304;28;20405;-63
2022/06/12 04:22:20;;;;;;;10.38;2.78;;;;;;;;;;5101166;28;20047;-63
2022/06/12 04:24:49;;;;;;;7.88;2.55;;;;;;;;;;5089770;28;20047;-63
2022/06/12 04:27:18;;;;;;;9.25;2.53;;;;;;;;;;5092014;28;20064;-63
2022/06/12 04:29:56;;;;;;;10.13;2.97;;;;;;;;;;5090718;28;20135;-63
2022/06/12 04:32:22;;;;;;;7.78;2.70;;;;;;;;;;5092445;28;20123;-62
2022/06/12 04:34:49;;;;;;;9.38;2.95;;;;;;;;;;5088301;28;20064;-63
2022/06/12 04:37:23;;;;;;;8.45;2.92;;;;;;;;;;5088519;28;20032;-64
2022/06/12 04:39:49;;;;;;;8.38;2.72;;;;;;;;;;5100897;28;20047;-63
2022/06/12 04:42:17;;;;;;;8.15;2.70;;;;;;;;;;5091612;28;20111;-63
2022/06/12 04:44:44;;;;;;;9.85;2.67;;;;;;;;;;5089682;28;20516;-63
2022/06/12 04:47:14;;;;;;;8.43;2.60;;;;;;;;;;5089850;28;20161;-63
2022/06/12 04:49:40;;;;;;;9.98;3.08;;;;;;;;;;5091857;28;20036;-63
2022/06/12 04:52:08;;;;;;;8.30;2.92;;;;;;;;;;5091027;28;20036;-63
2022/06/12 04:54:34;;;;;;;6.85;2.60;;;;;;;;;;5099215;28;20043;-63
2022/06/12 04:57:00;;;;;;;7.15;2.83;;;;;;;;;;5088955;28;20040;-63
2022/06/12 04:59:27;;;;;;;9.50;2.70;;;;;;;;;;5088557;28;20035;-63
2022/06/12 05:01:53;;;;;;;10.15;2.80;;;;;;;;;;5089179;28;20489;-63
2022/06/12 05:04:21;;;;;;;12.38;2.50;;;;;;;;;;5087084;28;20058;-63
2022/06/12 05:06:49;;;;;;;8.30;2.60;;;;;;;;;;5088990;28;20043;-63
2022/06/12 05:09:16;;;;;;;10.82;3.10;;;;;;;;;;5088607;28;20093;-63
2022/06/12 05:11:43;;;;;;;8.93;3.00;;;;;;;;;;5089151;28;20093;-63
2022/06/12 05:14:09;;;;;;;9.68;2.53;;;;;;;;;;5090814;28;22678;-63
2022/06/12 05:16:35;;;;;;;8.98;2.90;;;;;;;;;;5083625;28;20035;-63
2022/06/12 05:19:01;;;;;;;10.90;2.85;;;;;;;;;;5087675;28;20036;-63
2022/06/12 05:21:28;;;;;;;10.73;2.92;;;;;;;;;;5090230;28;20118;-63
2022/06/12 05:23:56;;;;;;;10.40;2.80;;;;;;;;;;5088997;28;20412;-63
2022/06/12 05:26:22;;;;;;;15.05;3.35;;;;;;;;;;5087753;28;20048;-63
2022/06/12 05:28:48;;;;;;;14.10;3.15;;;;;;;;;;5084387;28;20430;-62
2022/06/12 05:31:16;;;;;;;11.05;3.42;;;;;;;;;;5087118;28;20051;-62
2022/06/12 05:33:43;;;;;;;13.20;3.20;;;;;;;;;;5069231;28;20089;-62
2022/06/12 05:36:11;;;;;;;14.27;3.80;;;;;;;;;;5088808;28;20123;-62
2022/06/12 05:38:37;;;;;;;9.02;3.25;;;;;;;;;;5081586;28;20169;-62
2022/06/12 05:41:03;;;;;;;14.50;3.95;;;;;;;;;;5087786;28;20118;-62
2022/06/12 05:43:29;;;;;;;11.40;3.30;;;;;;;;;;5089344;28;20083;-62
2022/06/12 05:45:55;;;;;;;12.95;3.45;;;;;;;;;;5085881;28;20082;-63
2022/06/12 05:48:22;;;;;;;11.18;3.17;;;;;;;;;;5091408;28;20489;-63
2022/06/12 05:50:50;;;;;;;13.75;3.50;;;;;;;;;;5092771;28;20115;-62
2022/06/12 05:53:16;;;;;;;9.82;3.30;;;;;;;;;;5089262;28;20032;-62
2022/06/12 05:55:42;;;;;;;12.32;3.63;;;;;;;;;;5073819;28;20362;-63
2022/06/12 05:58:08;;;;;;;15.15;3.28;;;;;;;;;;5091806;28;20065;-63
2022/06/12 06:00:34;;;;;;;10.13;3.47;;;;;;;;;;5092397;28;20116;-63
2022/06/12 06:03:00;;;;;;;12.07;3.40;;;;;;;;;;5068901;28;20047;-63
2022/06/12 06:05:27;;;;;;;15.32;3.72;;;;;;;;;;5092169;28;20450;-63
2022/06/12 06:07:53;;;;;;;21.38;3.92;;;;;;;;;;5091682;28;20040;-63
2022/06/12 06:10:21;;;;;;;16.52;4.50;;;;;;;;;;5090500;28;20379;-63
2022/06/12 06:12:47;;;;;;;14.00;3.83;;;;;;;;;;5094385;28;20048;-62
2022/06/12 06:15:14;;;;;;;14.57;4.20;;;;;;;;;;5089939;28;20036;-62
2022/06/12 06:17:40;;;;;;;14.98;4.60;;;;;;;;;;5089145;28;20028;-63
2022/06/12 06:20:07;;;;;;;13.95;3.55;;;;;;;;;;5092108;28;20032;-62
2022/06/12 06:22:33;;;;;;;16.27;4.10;;;;;;;;;;5091455;28;20032;-63
2022/06/12 06:24:59;;;;;;;12.63;3.88;;;;;;;;;;5072276;28;20040;-63
2022/06/12 06:27:25;;;;;;;14.38;4.10;;;;;;;;;;5076794;28;20036;-63
2022/06/12 06:29:51;;;;;;;19.58;4.53;;;;;;;;;;5095099;28;20288;-62
2022/06/12 06:32:18;;;;;;;13.60;4.10;;;;;;;;;;5068068;28;20095;-62
2022/06/12 06:34:44;;;;;;;12.23;4.10;;;;;;;;;;5081610;28;20047;-62
2022/06/12 06:37:12;;;;;;;15.73;3.90;;;;;;;;;;5081363;28;20511;-63
2022/06/12 06:39:38;;;;;;;16.73;3.90;;;;;;;;;;5090507;28;20036;-63
2022/06/12 06:42:05;;;;;;;13.07;4.30;;;;;;;;;;5083415;28;20067;-63
2022/06/12 06:47:17;;;;;;;17.45;3.75;;;;;;;;;;5084270;28;20037;-62
2022/06/12 06:49:43;;;;;;;17.35;3.85;;;;;;;;;;5084084;28;20047;-62
2022/06/12 06:52:09;;;;;;;18.27;3.78;;;;;;;;;;5079148;28;20058;-62
2022/06/12 06:54:35;;;;;;;17.52;4.15;;;;;;;;;;5082390;28;20508;-62
2022/06/12 06:57:01;;;;;;;17.08;4.53;;;;;;;;;;5084925;28;20040;-63
2022/06/12 06:59:27;;;;;;;20.90;4.55;;;;;;;;;;5085175;28;20039;-62
2022/06/12 07:01:54;;;;;;;17.90;4.80;;;;;;;;;;5083719;28;20044;-62
2022/06/12 07:04:20;;;;;;;17.98;4.88;;;;;;;;;;5081537;28;20119;-63
2022/06/12 07:06:47;;;;;;;15.48;4.20;;;;;;;;;;5084391;28;20048;-63
2022/06/12 07:09:13;;;;;;;19.88;4.60;;;;;;;;;;5085039;28;20039;-62
2022/06/12 07:11:39;;;;;;;17.77;4.25;;;;;;;;;;5084471;28;20051;-63
2022/06/12 07:14:06;;;;;;;22.05;5.28;;;;;;;;;;5087940;28;20048;-63
2022/06/12 07:16:33;;;;;;;14.88;4.47;;;;;;;;;;5070723;28;20053;-63
2022/06/12 07:18:59;;;;;;;17.92;4.38;;;;;;;;;;5084601;28;20033;-62
2022/06/12 07:21:25;;;;;;;19.10;4.90;;;;;;;;;;5085067;28;20040;-62
2022/06/12 07:23:51;;;;;;;23.92;5.30;;;;;;;;;;5084900;28;20051;-63
2022/06/12 07:26:24;;;;;;;14.98;4.43;;;;;;;;;;5084220;28;20047;-62
2022/06/12 07:28:50;;;;;;;15.57;4.18;;;;;;;;;;5070195;28;20488;-63
2022/06/12 07:31:17;;;;;;;15.07;4.38;;;;;;;;;;5090324;28;20114;-62
2022/06/12 07:33:43;;;;;;;23.35;5.00;;;;;;;;;;5091363;28;20028;-62
2022/06/12 07:36:10;;;;;;;14.70;4.70;;;;;;;;;;5094076;28;20569;-63
2022/06/12 07:38:37;;;;;;;24.23;5.35;;;;;;;;;;5096738;28;20043;-63
2022/06/12 07:41:03;;;;;;;15.15;4.40;;;;;;;;;;5086789;28;20094;-63
2022/06/12 07:43:33;;;;;;;20.98;4.88;;;;;;;;;;5089149;28;20115;-63
2022/06/12 07:45:59;;;;;;;17.00;4.85;;;;;;;;;;5092223;28;20047;-63
2022/06/12 07:48:25;;;;;;;16.60;4.72;;;;;;;;;;5092201;28;20044;-63
2022/06/12 07:50:53;;;;;;;19.63;5.40;;;;;;;;;;5090411;28;20048;-63
2022/06/12 07:53:20;;;;;;;13.85;5.43;;;;;;;;;;5090925;28;20119;-62
2022/06/12 07:55:48;;;;;;;18.63;5.03;;;;;;;;;;5093468;28;20035;-62
2022/06/12 07:58:15;;;;;;;18.85;4.68;;;;;;;;;;5095507;28;20043;-62
2022/06/12 08:00:41;;;;;;;18.17;5.38;;;;;;;;;;5096357;28;20405;-62
2022/06/12 08:03:07;;;;;;;17.65;4.85;;;;;;;;;;5093656;28;20520;-62
2022/06/12 08:05:34;;;;;;;19.40;5.00;;;;;;;;;;5091502;28;20040;-63
2022/06/12 08:08:00;;;;;;;16.67;4.55;;;;;;;;;;5089899;28;20036;-63
2022/06/12 08:10:26;;;;;;;14.38;4.43;;;;;;;;;;5086839;28;20043;-63
2022/06/12 08:12:55;;;;;;;19.30;5.00;;;;;;;;;;5086156;28;20046;-63
2022/06/12 08:15:22;;;;;;;20.15;4.60;;;;;;;;;;5081063;28;20519;-63
2022/06/12 08:17:49;;;;;;;21.17;4.68;;;;;;;;;;5086331;28;20054;-63
2022/06/12 08:20:25;;;;;;;14.60;4.60;;;;;;;;;;5087432;28;20036;-63
2022/06/12 08:22:56;;;;;;;13.23;4.28;;;;;;;;;;5088591;28;20413;-63
2022/06/12 08:25:22;;;;;;;17.83;4.25;;;;;;;;;;5084811;28;20040;-63
2022/06/12 08:27:48;;;;;;;14.82;3.80;;;;;;;;;;5085039;28;20039;-63
2022/06/12 08:30:15;;;;;;;13.65;4.10;;;;;;;;;;5084728;28;20392;-63
2022/06/12 08:32:42;;;;;;;14.52;4.30;;;;;;;;;;5088065;28;20032;-63
2022/06/12 08:35:19;;;;;;;15.27;4.57;;;;;;;;;;5089007;28;20036;-63
2022/06/12 08:37:45;;;;;;;15.82;3.95;;;;;;;;;;5085590;28;20070;-63
2022/06/12 08:40:14;;;;;;;15.88;4.20;;;;;;;;;;5083285;28;20040;-63
2022/06/12 08:42:44;;;;;;;18.00;4.05;;;;;;;;;;5088633;28;20028;-63
2022/06/12 08:45:19;;;;;;;13.38;3.88;;;;;;;;;;5089251;28;20167;-63
2022/06/12 08:47:55;;;;;;;14.07;4.15;;;;;;;;;;5089514;28;20048;-63
2022/06/12 08:50:24;;;;;;;13.13;3.72;;;;;;;;;;5087686;28;20039;-63
2022/06/12 08:52:58;;;;;;;12.88;3.55;;;;;;;;;;5089028;28;20083;-63
2022/06/12 08:55:32;;;;;;;15.13;4.55;;;;;;;;;;5083713;28;20047;-63
2022/06/12 08:58:01;;;;;;;14.85;4.07;;;;;;;;;;5071288;28;20481;-63
2022/06/12 09:00:32;;;;;;;12.95;3.90;;;;;;;;;;5065403;28;20036;-63
2022/06/12 09:02:59;;;;;;;13.77;3.95;;;;;;;;;;5086945;28;20058;-63
2022/06/12 09:05:38;;;;;;;12.52;3.80;;;;;;;;;;5090449;28;20531;-64
2022/06/12 09:08:10;;;;;;;12.48;3.88;;;;;;;;;;5086487;28;20041;-64
2022/06/12 09:10:39;;;;;;;16.35;4.38;;;;;;;;;;5085735;28;20036;-62
2022/06/12 09:13:05;;;;;;;14.05;4.03;;;;;;;;;;5086986;28;20035;-64
2022/06/12 09:15:55;;;;;;;11.23;3.90;;;;;;;;;;5085288;28;20085;-63
2022/06/12 09:18:30;;;;;;;17.92;4.13;;;;;;;;;;5076410;28;20048;-63
2022/06/12 09:20:59;;;;;;;13.50;3.97;;;;;;;;;;5086139;28;20032;-63
2022/06/12 09:23:28;;;;;;;13.10;3.95;;;;;;;;;;5065898;28;20127;-63
2022/06/12 09:26:01;;;;;;;13.05;3.95;;;;;;;;;;5088825;28;20040;-63
2022/06/12 09:28:45;;;;;;;15.25;4.18;;;;;;;;;;5081352;28;20054;-63
2022/06/12 09:31:22;;;;;;;13.63;3.92;;;;;;;;;;5087103;28;20048;-63
2022/06/12 09:34:00;;;;;;;10.77;3.47;;;;;;;;;;5083648;28;20097;-64
2022/06/12 09:36:26;;;;;;;7.75;2.78;;;;;;;;;;5085428;28;20032;-63
2022/06/12 09:39:02;;;;;;;10.93;2.55;;;;;;;;;;5086695;28;20028;-63
2022/06/12 09:41:40;;;;;;;10.88;3.17;;;;;;;;;;5088109;28;20046;-63
2022/06/12 09:44:15;;;;;;;7.70;3.05;;;;;;;;;;5084125;28;20055;-64
2022/06/12 09:47:06;;;;;;;10.20;2.92;;;;;;;;;;5080851;28;20114;-63
2022/06/12 09:49:48;;;;;;;10.95;2.80;;;;;;;;;;5077097;28;20040;-63
2022/06/12 09:52:21;;;;;;;12.18;2.88;;;;;;;;;;5070694;28;20105;-63
2022/06/12 09:54:50;;;;;;;8.90;2.45;;;;;;;;;;5078513;28;20797;-63
2022/06/12 09:57:34;;;;;;;11.52;2.55;;;;;;;;;;5081842;28;20043;-63
2022/06/12 10:00:07;;;;;;;9.35;2.58;;;;;;;;;;5089254;28;20078;-64
2022/06/12 10:02:51;;;;;;;8.88;2.60;;;;;;;;;;5080551;28;20119;-64
2022/06/12 10:05:25;;;;;;;8.23;2.40;;;;;;;;;;5081855;28;20048;-64
2022/06/12 10:08:02;;;;;;;11.57;2.35;;;;;;;;;;5084424;28;20528;-64
2022/06/12 10:10:31;;;;;;;10.13;2.40;;;;;;;;;;5078007;28;20480;-63
2022/06/12 10:13:00;;;;;;;17.00;3.15;;;;;;;;;;5085912;28;20086;-64
2022/06/12 10:15:30;;;;;;;7.80;2.22;;;;;;;;;;5082927;28;20056;-63
2022/06/12 10:17:56;;;;;;;12.05;2.75;;;;;;;;;;5084498;28;20103;-63
2022/06/12 10:20:25;;;;;;;11.02;2.40;;;;;;;;;;5084386;28;20123;-63
2022/06/12 10:22:52;;;;;;;8.35;2.70;;;;;;;;;;5082137;28;20044;-63
2022/06/12 10:25:18;;;;;;;8.38;2.60;;;;;;;;;;5081751;28;20519;-63
2022/06/12 10:27:55;;;;;;;7.55;2.38;;;;;;;;;;5090857;28;20425;-63
2022/06/12 10:30:27;;;;;;;11.38;3.08;;;;;;;;;;5096797;28;20058;-63
2022/06/12 10:32:55;;;;;;;8.27;2.15;;;;;;;;;;5100660;28;20043;-63
2022/06/12 10:35:22;;;;;;;10.27;2.20;;;;;;;;;;5078176;28;20124;-63
2022/06/12 10:37:48;;;;;;;8.38;2.22;;;;;;;;;;5089504;28;20036;-63
2022/06/12 10:40:24;;;;;;;7.32;2.10;;;;;;;;;;5074315;28;20126;-63
2022/06/12 10:42:53;;;;;;;7.00;1.92;;;;;;;;;;5093564;28;20119;-63
2022/06/12 10:45:21;;;;;;;5.22;2.13;;;;;;;;;;5084500;28;20401;-62
2022/06/12 10:47:48;;;;;;;5.63;1.90;;;;;;;;;;5093537;28;20035;-63
2022/06/12 10:50:19;;;;;;;6.38;1.80;;;;;;;;;;5094065;28;20032;-64
2022/06/12 10:52:45;;;;;;;;;;;;;;;;;;5092148;28;20040;-64
2022/06/12 10:55:12;;;;;;;6.15;1.58;;;;;;;;;;5086154;28;19919;-63
2022/06/12 10:57:41;;;;;;;5.07;1.50;;;;;;;;;;5091973;28;20089;-63
2022/06/12 11:00:19;;;;;;;6.63;1.90;;;;;;;;;;5087469;28;20111;-63
2022/06/12 11:02:56;;;;;;;6.13;1.67;;;;;;;;;;5087366;28;20412;-63
2022/06/12 11:05:42;;;;;;;7.82;2.05;;;;;;;;;;5083873;28;20085;-63
2022/06/12 11:08:17;;;;;;;5.80;2.00;;;;;;;;;;5090297;28;20122;-63
2022/06/12 11:10:43;;;;;;;9.95;2.55;;;;;;;;;;5087785;28;20386;-64
2022/06/12 11:13:16;;;;;;;6.60;2.00;;;;;;;;;;5090510;28;20113;-63
2022/06/12 11:15:43;;;;;;;6.43;2.03;;;;;;;;;;5079502;28;20417;-63
2022/06/12 11:18:21;;;;;;;6.72;1.90;;;;;;;;;;5082603;28;20055;-63
2022/06/12 11:21:05;;;;;;;7.05;1.75;;;;;;;;;;5090220;28;20130;-63
2022/06/12 11:24:01;;;;;;;6.75;2.00;;;;;;;;;;5085657;28;20040;-63
2022/06/12 11:26:45;;;;;;;6.18;1.73;;;;;;;;;;5060825;28;20409;-63
2022/06/12 11:29:24;;;;;;;5.20;1.45;;;;;;;;;;5088649;28;20515;-63
2022/06/12 11:32:08;;;;;;;7.90;1.83;;;;;;;;;;5087437;28;20082;-63
2022/06/12 11:34:43;;;;;;;5.47;1.58;;;;;;;;;;5089747;28;20075;-64
2022/06/12 11:37:20;;;;;;;5.22;1.52;;;;;;;;;;5085160;28;20497;-63
2022/06/12 11:39:49;;;;;;;4.43;1.67;;;;;;;;;;5072459;28;20512;-64
2022/06/12 11:42:34;;;;;;;5.45;1.63;;;;;;;;;;5083834;28;20555;-63
2022/06/12 11:45:05;;;;;;;6.13;1.50;;;;;;;;;;5087552;28;20113;-64
2022/06/12 11:48:00;;;;;;;5.65;1.50;;;;;;;;;;5081809;28;20048;-64
2022/06/12 11:50:42;;;;;;;5.10;1.45;;;;;;;;;;5070104;28;20048;-64
2022/06/12 11:53:08;;;;;;;2.75;1.08;;;;;;;;;;5084260;28;20040;-63
2022/06/12 11:55:41;;;;;;;4.35;1.33;;;;;;;;;;5087886;28;20093;-63
2022/06/12 11:58:08;;;;;;;5.75;1.60;;;;;;;;;;5084723;28;20059;-64
2022/06/12 12:00:40;;;;;;;6.05;1.10;;;;;;;;;;5087659;28;20028;-64
2022/06/12 12:03:09;;;;;;;5.68;1.10;;;;;;;;;;5088178;28;20043;-64
2022/06/12 12:05:50;;;;;;;4.07;1.27;;;;;;;;;;5080914;28;20035;-64
2022/06/12 12:08:16;;;;;;;5.05;1.58;;;;;;;;;;5087907;28;20515;-64
2022/06/12 12:10:48;;;;;;;4.30;1.42;;;;;;;;;;5090032;28;20044;-64
2022/06/12 12:13:19;;;;;;;3.53;1.30;;;;;;;;;;5089420;28;20043;-64
2022/06/12 12:15:48;;;;;;;4.78;1.50;;;;;;;;;;5072906;28;20098;-64
2022/06/12 12:18:17;;;;;;;5.45;1.55;;;;;;;;;;5083056;28;20044;-63
2022/06/12 12:20:45;;;;;;;4.88;1.52;;;;;;;;;;5080387;28;20031;-63
2022/06/12 12:23:20;;;;;;;7.55;1.50;;;;;;;;;;5085104;28;20043;-63
2022/06/12 12:25:50;;;;;;;5.03;1.30;;;;;;;;;;5084197;28;20480;-64
2022/06/12 12:28:35;;;;;;;10.07;1.98;;;;;;;;;;5080039;28;20090;-64
2022/06/12 12:31:03;;;;;;;3.50;1.70;;;;;;;;;;5083608;28;20048;-64
2022/06/12 12:33:30;;;;;;;4.50;1.08;;;;;;;;;;5088927;28;20048;-64
2022/06/12 12:41:40;;;;;;;3.20;1.38;;;;;;;;;;5085269;28;20689;-63
2022/06/12 12:44:06;;;;;;;5.85;1.20;;;;;;;;;;5086055;28;20032;-64
2022/06/12 12:46:49;;;;;;;4.68;1.30;;;;;;;;;;5085502;28;20043;-64
2022/06/12 12:49:21;;;;;;;2.53;1.15;;;;;;;;;;5073755;28;20123;-64
2022/06/12 12:51:47;;;;;;;5.25;1.33;;;;;;;;;;5052051;28;20039;-64
2022/06/12 12:54:15;;;;;;;4.90;1.20;;;;;;;;;;5078600;28;20413;-64
2022/06/12 12:56:52;;;;;;;5.57;1.40;;;;;;;;;;5046730;28;20079;-63
2022/06/12 12:59:19;;;;;;;4.40;1.30;;;;;;;;;;5067645;28;20043;-63
2022/06/12 13:01:47;;;;;;;4.18;1.50;;;;;;;;;;5068499;28;20051;-64
2022/06/12 13:04:15;;;;;;;3.53;1.30;;;;;;;;;;5065459;28;20703;-64
2022/06/12 13:06:48;;;;;;;4.30;1.13;;;;;;;;;;5072211;28;20165;-64
2022/06/12 13:09:17;;;;;;;4.63;1.17;;;;;;;;;;5074447;28;20040;-64
2022/06/12 13:11:56;;;;;;;3.67;1.10;;;;;;;;;;5050059;28;20051;-64
2022/06/12 13:14:22;;;;;;;4.15;1.17;;;;;;;;;;5077900;28;20028;-64
2022/06/12 13:17:00;;;;;;;4.05;1.10;;;;;;;;;;5069189;28;20076;-64
2022/06/12 13:19:40;;;;;;;3.22;1.30;;;;;;;;;;5085974;28;20040;-63
2022/06/12 13:22:10;;;;;;;3.80;1.02;;;;;;;;;;5089131;28;20040;-63
2022/06/12 13:24:36;;;;;;;3.78;1.40;;;;;;;;;;5081631;28;20056;-64
2022/06/12 13:27:20;;;;;;;5.88;1.20;;;;;;;;;;5085355;28;20494;-64
2022/06/12 13:29:47;;;;;;;3.15;1.30;;;;;;;;;;5090540;28;20425;-64
2022/06/12 13:32:21;;;;;;;4.32;1.15;;;;;;;;;;5066383;28;20044;-64
2022/06/12 13:34:54;;;;;;;3.78;1.17;;;;;;;;;;5089464;28;20490;-63
2022/06/12 13:37:20;;;;;;;2.80;1.40;;;;;;;;;;5087411;28;20381;-63
2022/06/12 13:39:47;;;;;;;3.75;1.30;;;;;;;;;;5083969;28;20036;-64
2022/06/12 13:42:16;;;;;;;6.18;1.48;;;;;;;;;;5081209;28;20071;-64
2022/06/12 13:44:43;;;;;;;4.97;1.15;;;;;;;;;;5086700;28;20097;-63
2022/06/12 13:47:32;;;;;;;3.45;1.25;;;;;;;;;;5086897;28;20509;-63
2022/06/12 13:49:58;;;;;;;4.05;1.10;;;;;;;;;;5079599;28;20071;-64
2022/06/12 13:52:30;;;;;;;3.45;1.27;;;;;;;;;;5087497;28;20485;-63
2022/06/12 13:54:56;;;;;;;6.20;1.50;;;;;;;;;;5079200;28;20036;-63
2022/06/12 13:57:42;;;;;;;3.70;1.25;;;;;;;;;;5066779;28;20042;-63
2022/06/12 14:00:27;;;;;;;6.15;1.42;;;;;;;;;;5087722;28;20040;-63
2022/06/12 14:02:53;;;;;;;3.88;1.33;;;;;;;;;;5064701;28;20105;-64
2022/06/12 14:05:21;;;;;;;3.20;1.33;;;;;;;;;;5085979;28;20040;-64
2022/06/12 14:07:48;;;;;;;4.97;1.30;;;;;;;;;;5089033;28;20119;-63
2022/06/12 14:10:16;;;;;;;6.57;1.38;;;;;;;;;;5089743;28;20051;-64
2022/06/12 14:12:43;;;;;;;6.93;1.65;;;;;;;;;;5092845;28;20576;-64
2022/06/12 14:15:28;;;;;;;6.50;1.52;;;;;;;;;;5094724;28;20044;-64
2022/06/12 14:17:59;;;;;;;4.93;1.20;;;;;;;;;;5074578;28;20079;-63
2022/06/12 14:20:35;;;;;;;5.68;1.20;;;;;;;;;;5080014;28;20041;-63
2022/06/12 14:23:03;;;;;;;5.38;1.42;;;;;;;;;;5087450;28;20058;-63
2022/06/12 14:25:33;;;;;;;3.58;1.60;;;;;;;;;;5092770;28;20059;-63
2022/06/12 14:28:07;;;;;;;5.15;1.75;;;;;;;;;;5104009;22;20023;-64
2022/06/12 14:30:38;;;;;;;6.25;1.40;;;;;;;;;;5082507;28;20124;-64
2022/06/12 14:33:22;;;;;;;3.95;1.25;;;;;;;;;;5109007;28;20547;-63
2022/06/12 14:35:48;;;;;;;6.72;1.90;;;;;;;;;;5100649;28;20036;-64
2022/06/12 14:38:21;;;;;;;6.20;1.80;;;;;;;;;;5099659;28;20036;-63
2022/06/12 14:40:47;;;;;;;5.72;2.13;;;;;;;;;;5113746;27;20069;-64
2022/06/12 14:43:24;;;;;;;6.00;1.80;;;;;;;;;;5113327;27;20108;-64
2022/06/12 14:45:52;;;;;;;4.25;1.60;;;;;;;;;;5112920;28;20077;-64
2022/06/12 14:48:22;;;;;;;6.10;1.48;;;;;;;;;;5109546;27;20733;-63
2022/06/12 14:50:48;;;;;;;9.27;1.60;;;;;;;;;;5101594;28;20515;-64
2022/06/12 14:53:15;;;;;;;3.53;1.60;;;;;;;;;;5110238;28;20058;-63
2022/06/12 14:55:42;;;;;;;4.25;1.52;;;;;;;;;;5092363;28;20043;-63
2022/06/12 14:58:20;;;;;;;5.20;2.05;;;;;;;;;;5107113;28;20080;-63
2022/06/12 15:00:46;;;;;;;7.22;2.17;;;;;;;;;;5106190;28;20039;-63
2022/06/12 15:03:13;;;;;;;7.15;2.13;;;;;;;;;;5108967;28;20035;-64
2022/06/12 15:05:39;;;;;;;4.43;1.88;;;;;;;;;;5087777;27;20138;-64
2022/06/12 15:08:05;;;;;;;5.50;1.63;;;;;;;;;;5111350;28;20134;-64
2022/06/12 15:10:31;;;;;;;7.68;2.08;;;;;;;;;;5112165;28;20044;-63
2022/06/12 15:12:57;;;;;;;6.65;2.20;;;;;;;;;;5095948;28;20082;-63
2022/06/12 15:15:24;;;;;;;7.28;1.90;;;;;;;;;;5095809;28;20493;-63